createdAt,value
2019-05-13T00:01:00.109Z,1.80
2019-05-13T00:03:33.364Z,1.90
2019-05-13T00:06:08.547Z,1.93
2019-05-13T00:08:44.004Z,1.60
2019-05-13T00:11:17.600Z,2.00
2019-05-13T00:13:50.069Z,2.00
2019-05-13T00:16:23.466Z,1.60
2019-05-13T00:18:54.899Z,1.73
2019-05-13T00:21:33.699Z,2.00
2019-05-13T00:24:05.789Z,1.90
2019-05-13T00:26:44.451Z,1.50
2019-05-13T00:29:18.748Z,2.10
2019-05-13T00:32:10.619Z,1.93
2019-05-13T00:34:46.526Z,1.80
2019-05-13T00:37:24.449Z,1.90
2019-05-13T00:40:03.998Z,1.70
2019-05-13T00:42:43.827Z,2.03
2019-05-13T00:45:14.667Z,1.70
2019-05-13T00:47:53.730Z,2.00
2019-05-13T00:50:25.914Z,1.87
2019-05-13T00:52:58.754Z,1.97
2019-05-13T00:55:37.582Z,2.00
2019-05-13T00:58:14.026Z,1.90
2019-05-13T01:00:46.552Z,2.10
2019-05-13T01:03:20.895Z,2.10
2019-05-13T01:05:53.510Z,2.00
2019-05-13T01:08:36.669Z,1.83
2019-05-13T01:11:13.946Z,2.03
2019-05-13T01:13:46.529Z,1.77
2019-05-13T01:16:19.104Z,2.00
2019-05-13T01:18:53.680Z,1.90
2019-05-13T01:21:25.256Z,1.90
2019-05-13T01:24:05.377Z,2.07
2019-05-13T01:26:40.180Z,2.00
2019-05-13T01:29:14.144Z,1.87
2019-05-13T01:31:46.995Z,1.93
2019-05-13T01:34:23.545Z,2.00
2019-05-13T01:36:59.003Z,2.27
2019-05-13T01:39:37.305Z,2.17
2019-05-13T01:42:11.062Z,2.00
2019-05-13T01:44:45.289Z,2.10
2019-05-13T01:47:18.489Z,2.10
2019-05-13T01:49:50.260Z,1.83
2019-05-13T01:52:21.070Z,2.00
2019-05-13T01:54:54.420Z,2.00
2019-05-13T01:57:27.605Z,2.10
2019-05-13T02:00:04.674Z,2.10
2019-05-13T02:02:39.044Z,1.83
2019-05-13T02:05:10.007Z,2.20
2019-05-13T02:07:54.543Z,2.27
2019-05-13T02:10:24.507Z,2.20
2019-05-13T02:13:00.551Z,2.10
2019-05-13T02:15:36.220Z,1.97
2019-05-13T02:18:09.643Z,2.27
2019-05-13T02:20:44.986Z,2.10
2019-05-13T02:23:15.662Z,2.00
2019-05-13T02:25:46.128Z,2.13
2019-05-13T02:28:17.938Z,2.03
2019-05-13T02:30:50.749Z,2.30
2019-05-13T02:33:26.555Z,2.10
2019-05-13T02:35:58.195Z,2.30
2019-05-13T02:38:31.830Z,2.30
2019-05-13T02:41:02.880Z,2.13
2019-05-13T02:43:41.391Z,2.57
2019-05-13T02:46:12.942Z,2.07
2019-05-13T02:48:47.981Z,2.20
2019-05-13T02:51:32.851Z,2.20
2019-05-13T02:54:12.826Z,2.33
2019-05-13T02:56:45.638Z,2.27
2019-05-13T02:59:16.607Z,2.30
2019-05-13T03:01:53.290Z,2.20
2019-05-13T03:04:32.882Z,2.40
2019-05-13T03:07:07.605Z,2.17
2019-05-13T03:09:42.074Z,2.33
2019-05-13T03:12:15.659Z,2.23
2019-05-13T03:14:48.605Z,2.20
2019-05-13T03:17:32.426Z,2.57
2019-05-13T03:20:04.187Z,2.10
2019-05-13T03:22:36.491Z,2.40
2019-05-13T03:25:06.778Z,2.30
2019-05-13T03:27:37.041Z,2.30
2019-05-13T03:30:16.725Z,2.50
2019-05-13T03:32:55.256Z,2.53
2019-05-13T03:35:26.810Z,2.30
2019-05-13T03:37:57.254Z,2.53
2019-05-13T03:40:33.077Z,2.70
2019-05-13T03:43:12.838Z,2.77
2019-05-13T03:45:46.012Z,2.70
2019-05-13T03:48:24.004Z,3.17
2019-05-13T03:50:56.204Z,2.30
2019-05-13T03:53:42.941Z,2.60
2019-05-13T03:56:13.112Z,2.90
2019-05-13T03:58:56.054Z,2.80
2019-05-13T04:01:32.574Z,2.77
2019-05-13T04:04:04.240Z,2.50
2019-05-13T04:06:37.538Z,2.70
2019-05-13T04:09:22.285Z,2.87
2019-05-13T04:11:52.631Z,3.37
2019-05-13T04:14:23.345Z,2.83
2019-05-13T04:16:58.065Z,2.50
2019-05-13T04:19:28.933Z,3.10
2019-05-13T04:22:02.416Z,2.93
2019-05-13T04:24:34.058Z,3.30
2019-05-13T04:27:14.703Z,2.90
2019-05-13T04:29:53.729Z,2.67
2019-05-13T04:32:33.176Z,3.00
2019-05-13T04:35:05.770Z,2.70
2019-05-13T04:37:43.007Z,2.47
2019-05-13T04:40:15.391Z,2.80
2019-05-13T04:42:47.557Z,3.17
2019-05-13T04:45:18.758Z,3.00
2019-05-13T04:47:52.915Z,2.97
2019-05-13T04:50:26.833Z,2.83
2019-05-13T04:52:58.284Z,3.20
2019-05-13T04:55:42.738Z,2.90
2019-05-13T04:58:16.811Z,3.13
2019-05-13T05:01:23.660Z,2.83
2019-05-13T05:04:27.427Z,2.87
2019-05-13T05:07:22.187Z,2.90
2019-05-13T05:10:25.889Z,2.53
2019-05-13T05:13:25.147Z,3.23
2019-05-13T05:16:21.988Z,2.80
2019-05-13T05:19:26.910Z,3.07
2019-05-13T05:22:35.619Z,3.10
2019-05-13T05:25:22.133Z,2.93
2019-05-13T05:28:34.438Z,3.13
2019-05-13T05:31:44.592Z,3.10
2019-05-13T05:34:48.823Z,2.97
2019-05-13T05:37:32.869Z,2.97
2019-05-13T05:40:12.328Z,2.37
2019-05-13T05:42:51.671Z,3.00
2019-05-13T05:45:23.789Z,2.83
2019-05-13T05:47:56.841Z,2.90
2019-05-13T05:50:31.921Z,2.90
2019-05-13T05:53:05.521Z,2.83
2019-05-13T05:55:41.670Z,2.50
2019-05-13T05:58:17.018Z,2.60
2019-05-13T06:00:54.473Z,2.50
2019-05-13T06:03:32.773Z,2.83
2019-05-13T06:06:07.563Z,2.63
2019-05-13T06:08:44.016Z,2.57
2019-05-13T06:11:18.962Z,2.83
2019-05-13T06:13:54.733Z,2.70
2019-05-13T06:16:32.078Z,2.50
2019-05-13T06:19:05.092Z,2.90
2019-05-13T06:21:37.304Z,2.30
2019-05-13T06:24:08.353Z,3.07
2019-05-13T06:26:47.886Z,2.23
2019-05-13T06:29:22.888Z,2.50
2019-05-13T06:31:56.469Z,2.60
2019-05-13T06:34:27.101Z,2.40
2019-05-13T06:37:01.635Z,2.57
2019-05-13T06:39:32.028Z,2.70
2019-05-13T06:42:07.658Z,2.80
2019-05-13T06:45:02.290Z,2.57
2019-05-13T06:47:36.241Z,2.67
2019-05-13T06:50:11.683Z,2.50
2019-05-13T06:52:45.082Z,2.63
2019-05-13T06:55:16.954Z,2.80
2019-05-13T06:57:47.892Z,3.03
2019-05-13T07:00:21.589Z,2.63
2019-05-13T07:02:55.177Z,3.43
2019-05-13T07:05:31.817Z,2.60
2019-05-13T07:08:07.940Z,2.90
2019-05-13T07:10:42.281Z,2.77
2019-05-13T07:13:17.226Z,2.87
2019-05-13T07:15:52.120Z,2.90
2019-05-13T07:18:25.816Z,2.90
2019-05-13T07:20:57.795Z,3.23
2019-05-13T07:23:42.245Z,2.77
2019-05-13T07:26:22.089Z,3.00
2019-05-13T07:28:53.779Z,2.40
2019-05-13T07:31:32.219Z,2.70
2019-05-13T07:34:08.149Z,2.90
2019-05-13T07:36:42.319Z,2.47
2019-05-13T07:39:18.860Z,2.70
2019-05-13T07:41:51.880Z,3.40
2019-05-13T07:44:32.381Z,2.77
2019-05-13T07:47:07.495Z,2.50
2019-05-13T07:49:38.368Z,3.20
2019-05-13T07:52:15.780Z,2.47
2019-05-13T07:55:01.704Z,2.80
2019-05-13T07:57:34.238Z,2.53
2019-05-13T08:00:08.785Z,2.80
2019-05-13T08:02:47.969Z,2.90
2019-05-13T08:05:19.331Z,2.67
2019-05-13T08:07:51.513Z,2.90
2019-05-13T08:10:24.237Z,2.53
2019-05-13T08:12:58.491Z,2.53
2019-05-13T08:15:33.449Z,2.97
2019-05-13T08:18:07.999Z,2.73
2019-05-13T08:20:41.991Z,2.70
2019-05-13T08:23:16.997Z,3.00
2019-05-13T08:25:51.897Z,2.40
2019-05-13T08:28:25.865Z,2.30
2019-05-13T08:30:57.149Z,2.23
2019-05-13T08:33:42.446Z,2.53
2019-05-13T08:36:16.870Z,2.30
2019-05-13T08:39:30.141Z,2.20
2019-05-13T08:42:11.703Z,2.43
2019-05-13T08:44:36.554Z,2.20
2019-05-13T08:47:12.021Z,2.37
2019-05-13T08:49:44.822Z,2.30
2019-05-13T08:52:16.499Z,2.10
2019-05-13T08:54:52.498Z,2.50
2019-05-13T08:57:23.742Z,2.20
2019-05-13T08:59:53.952Z,2.20
2019-05-13T09:02:28.518Z,2.23
2019-05-13T09:05:02.837Z,2.00
2019-05-13T09:07:41.444Z,2.37
2019-05-13T09:10:15.075Z,2.17
2019-05-13T09:13:33.411Z,1.90
2019-05-13T09:16:07.292Z,2.10
2019-05-13T09:18:43.073Z,1.90
2019-05-13T09:26:52.744Z,1.87
2019-05-13T09:29:32.179Z,1.57
2019-05-13T09:32:06.087Z,1.43
2019-05-13T09:34:37.648Z,1.40
2019-05-13T09:37:12.907Z,1.60
2019-05-13T09:39:45.678Z,1.50
2019-05-13T09:42:18.902Z,1.57
2019-05-13T09:45:02.215Z,1.40
2019-05-13T09:47:33.464Z,1.40
2019-05-13T09:50:06.041Z,1.30
2019-05-13T09:52:39.662Z,1.30
2019-05-13T09:55:25.303Z,1.50
2019-05-13T09:57:47.688Z,1.13
2019-05-13T10:00:23.680Z,1.30
2019-05-13T10:02:55.039Z,1.50
2019-05-13T10:05:28.329Z,1.50
2019-05-13T10:08:05.137Z,1.50
2019-05-13T10:10:38.537Z,1.40
2019-05-13T10:16:04.993Z,1.40
2019-05-13T10:18:43.404Z,1.40
2019-05-13T10:21:23.869Z,1.57
2019-05-13T10:24:15.979Z,1.30
2019-05-13T10:26:51.883Z,1.50
2019-05-13T10:29:31.684Z,1.40
2019-05-13T10:32:08.741Z,1.40
2019-05-13T10:34:46.003Z,1.10
2019-05-13T10:37:21.959Z,1.23
2019-05-13T10:40:14.620Z,1.07
2019-05-13T10:42:52.359Z,1.43
2019-05-13T10:45:29.207Z,1.50
2019-05-13T10:48:03.610Z,1.23
2019-05-13T10:50:41.785Z,1.40
2019-05-13T10:53:17.708Z,1.50
2019-05-13T10:55:57.697Z,1.30
2019-05-13T10:58:31.461Z,1.30
2019-05-13T11:01:05.191Z,1.40
2019-05-13T11:03:38.281Z,1.30
2019-05-13T11:06:18.057Z,1.50
2019-05-13T11:08:53.132Z,1.30
2019-05-13T11:11:32.995Z,1.67
2019-05-13T11:14:28.535Z,1.30
2019-05-13T11:17:14.943Z,1.47
2019-05-13T11:19:47.728Z,1.20
2019-05-13T11:22:22.663Z,1.33
2019-05-13T11:24:59.396Z,1.60
2019-05-13T11:27:42.140Z,1.43
2019-05-13T11:30:17.547Z,1.40
2019-05-13T11:32:52.600Z,1.53
2019-05-13T11:35:28.938Z,1.60
2019-05-13T11:38:01.859Z,1.70
2019-05-13T11:40:36.976Z,1.43
2019-05-13T11:43:12.269Z,1.57
2019-05-13T11:45:47.843Z,1.40
2019-05-13T11:48:23.173Z,1.40
2019-05-13T11:50:54.401Z,1.50
2019-05-13T11:53:33.523Z,1.50
2019-05-13T11:56:04.029Z,1.50
2019-05-13T11:58:43.101Z,1.50
2019-05-13T12:01:14.494Z,1.60
2019-05-13T12:03:47.225Z,1.50
2019-05-13T12:06:17.943Z,1.40
2019-05-13T12:08:55.161Z,1.40
2019-05-13T12:11:25.760Z,1.43
2019-05-13T12:14:07.556Z,1.55
2019-05-13T12:16:42.351Z,1.52
2019-05-13T12:19:16.152Z,1.65
2019-05-13T12:21:47.227Z,1.27
2019-05-13T12:24:29.831Z,1.62
2019-05-13T12:27:07.410Z,1.60
2019-05-13T12:29:44.643Z,1.67
2019-05-13T12:32:22.101Z,1.77
2019-05-13T12:34:56.673Z,1.60
2019-05-13T12:37:33.460Z,1.40
2019-05-13T12:40:11.516Z,1.70
2019-05-13T12:42:47.098Z,1.87
2019-05-13T12:45:22.248Z,2.00
2019-05-13T12:47:53.258Z,1.80
2019-05-13T12:50:32.311Z,1.77
2019-05-13T12:53:14.667Z,2.10
2019-05-13T12:55:53.768Z,1.50
2019-05-13T12:58:33.822Z,1.90
2019-05-13T13:01:05.843Z,1.85
2019-05-13T13:03:39.291Z,1.80
2019-05-13T13:06:31.097Z,2.22
2019-05-13T13:08:57.484Z,1.77
2019-05-13T13:11:28.655Z,2.00
2019-05-13T13:14:05.673Z,1.65
2019-05-13T13:16:42.123Z,2.00
2019-05-13T13:19:14.537Z,2.05
2019-05-13T13:24:24.748Z,1.95
2019-05-13T13:27:01.176Z,3.00
2019-05-13T13:29:43.322Z,1.70
2019-05-13T13:32:17.664Z,1.90
2019-05-13T13:34:53.541Z,1.52
2019-05-13T13:37:22.544Z,1.42
2019-05-13T13:39:58.773Z,1.80
2019-05-13T13:42:34.436Z,1.72
2019-05-13T13:45:10.567Z,1.60
2019-05-13T13:47:45.353Z,1.82
2019-05-13T13:50:33.527Z,1.70
2019-05-13T13:53:04.931Z,1.87
2019-05-13T13:55:38.007Z,1.92
2019-05-13T13:58:14.129Z,1.60
2019-05-13T14:01:01.828Z,1.65
2019-05-13T14:03:28.064Z,1.67
2019-05-13T14:06:06.175Z,1.70
2019-05-13T14:06:25.160Z,1.63
2019-05-13T14:06:52.391Z,2.00
2019-05-13T14:08:43.455Z,1.40
2019-05-13T14:11:23.209Z,1.52
2019-05-13T14:13:56.439Z,1.40
2019-05-13T14:16:36.101Z,1.70
2019-05-13T14:19:10.761Z,1.57
2019-05-13T14:21:42.141Z,1.70
2019-05-13T14:24:18.277Z,2.30
2019-05-13T14:26:53.185Z,1.50
2019-05-13T14:29:38.595Z,1.17
2019-05-13T14:32:08.761Z,1.40
2019-05-13T14:34:46.037Z,1.50
2019-05-13T14:37:22.316Z,1.25
2019-05-13T14:39:55.555Z,1.30
2019-05-13T14:42:32.041Z,1.40
2019-05-13T14:45:03.573Z,1.52
2019-05-13T14:47:38.203Z,1.40
2019-05-13T14:50:31.765Z,1.30
2019-05-13T14:53:05.372Z,1.40
2019-05-13T14:55:42.092Z,1.20
2019-05-13T14:58:14.429Z,1.40
2019-05-13T15:01:10.280Z,1.20
2019-05-13T15:03:26.794Z,1.20
2019-05-13T15:05:58.545Z,1.15
2019-05-13T15:08:33.541Z,1.40
2019-05-13T15:11:17.903Z,1.40
2019-05-13T15:13:51.799Z,1.40
2019-05-13T15:16:25.443Z,1.27
2019-05-13T15:19:07.707Z,1.32
2019-05-13T15:21:45.598Z,1.35
2019-05-13T15:24:24.427Z,1.50
2019-05-13T15:27:23.017Z,1.40
2019-05-13T15:30:16.805Z,1.70
2019-05-13T15:32:42.010Z,1.50
2019-05-13T15:35:20.709Z,1.60
2019-05-13T15:37:53.459Z,1.90
2019-05-13T15:40:25.485Z,1.92
2019-05-13T15:42:59.606Z,1.72
2019-05-13T15:45:31.974Z,1.80
2019-05-13T15:48:04.273Z,2.10
2019-05-13T15:50:36.584Z,2.00
2019-05-13T15:53:14.059Z,1.80
2019-05-13T15:55:46.122Z,1.73
2019-05-13T15:58:37.708Z,1.90
2019-05-13T16:01:02.584Z,1.90
2019-05-13T16:03:35.913Z,2.10
2019-05-13T16:06:10.623Z,2.10
2019-05-13T16:08:46.253Z,2.27
2019-05-13T16:11:21.987Z,1.80
2019-05-13T16:13:52.437Z,2.00
2019-05-13T16:16:24.209Z,1.80
2019-05-13T16:18:55.386Z,2.00
2019-05-13T16:21:28.549Z,2.17
2019-05-13T16:24:17.526Z,2.10
2019-05-13T16:26:53.898Z,1.97
2019-05-13T16:29:28.844Z,2.10
2019-05-13T16:32:04.100Z,1.87
2019-05-13T16:34:48.312Z,2.03
2019-05-13T16:37:22.018Z,2.10
2019-05-13T16:39:54.355Z,2.40
2019-05-13T16:42:42.046Z,2.00
2019-05-13T16:45:16.713Z,2.10
2019-05-13T16:47:57.228Z,2.40
2019-05-13T16:50:23.136Z,2.57
2019-05-13T16:53:01.703Z,2.17
2019-05-13T16:55:36.736Z,2.50
2019-05-13T16:58:07.932Z,2.50
2019-05-13T17:00:42.426Z,2.20
2019-05-13T17:03:15.672Z,2.00
2019-05-13T17:05:47.006Z,2.00
2019-05-13T17:08:18.084Z,2.10
2019-05-13T17:10:55.440Z,2.07
2019-05-13T17:13:31.532Z,2.07
2019-05-13T17:16:07.053Z,2.23
2019-05-13T17:18:51.905Z,2.30
2019-05-13T17:21:22.728Z,2.23
2019-05-13T17:23:57.978Z,2.10
2019-05-13T17:26:33.618Z,2.03
2019-05-13T17:29:11.349Z,2.20
2019-05-13T17:32:18.202Z,1.90
2019-05-13T17:34:51.572Z,1.90
2019-05-13T17:37:25.423Z,2.10
2019-05-13T17:40:05.540Z,2.07
2019-05-13T17:42:41.468Z,2.30
2019-05-13T17:45:18.053Z,2.10
2019-05-13T17:47:51.997Z,2.33
2019-05-13T17:50:22.980Z,2.10
2019-05-13T17:52:54.033Z,2.10
2019-05-13T17:55:27.807Z,2.10
2019-05-13T17:58:01.442Z,2.10
2019-05-13T18:00:36.056Z,1.90
2019-05-13T18:03:08.088Z,1.90
2019-05-13T18:05:41.945Z,2.10
2019-05-13T18:08:13.016Z,2.30
2019-05-13T18:10:45.445Z,2.10
2019-05-13T18:13:17.016Z,1.90
2019-05-13T18:15:51.353Z,1.90
2019-05-13T18:18:38.957Z,2.00
2019-05-13T18:21:01.545Z,1.90
2019-05-13T18:23:33.016Z,1.67
2019-05-13T18:26:05.457Z,1.90
2019-05-13T18:28:42.193Z,2.10
2019-05-13T18:31:14.067Z,2.00
2019-05-13T18:33:46.137Z,1.80
2019-05-13T18:36:17.678Z,2.07
2019-05-13T18:38:52.298Z,2.13
2019-05-13T18:41:25.981Z,2.13
2019-05-13T18:44:02.257Z,1.90
2019-05-13T18:46:41.453Z,2.13
2019-05-13T18:49:15.648Z,2.03
2019-05-13T18:51:51.409Z,2.20
2019-05-13T18:54:24.526Z,2.10
2019-05-13T18:56:57.396Z,2.00
2019-05-13T18:59:43.796Z,1.90
2019-05-13T19:02:21.415Z,2.20
2019-05-13T19:05:01.495Z,2.10
2019-05-13T19:07:35.620Z,2.27
2019-05-13T19:10:11.527Z,2.20
2019-05-13T19:12:46.186Z,2.40
2019-05-13T19:15:24.030Z,2.40
2019-05-13T19:17:59.116Z,2.20
2019-05-13T19:20:33.796Z,2.30
2019-05-13T19:23:08.433Z,2.20
2019-05-13T19:25:43.647Z,2.40
2019-05-13T19:28:19.501Z,2.40
2019-05-13T19:30:53.383Z,2.07
2019-05-13T19:33:24.000Z,2.00
2019-05-13T19:35:55.596Z,2.40
2019-05-13T19:38:31.692Z,2.30
2019-05-13T19:41:04.033Z,2.10
2019-05-13T19:43:36.943Z,2.20
2019-05-13T19:46:12.008Z,2.00
2019-05-13T19:48:46.197Z,2.10
2019-05-13T19:51:34.671Z,2.20
2019-05-13T19:54:12.722Z,2.00
2019-05-13T19:56:48.498Z,1.90
2019-05-13T19:59:21.634Z,2.20
2019-05-13T20:01:54.682Z,2.30
2019-05-13T20:04:35.007Z,2.30
2019-05-13T20:07:05.673Z,2.20
2019-05-13T20:09:37.546Z,2.00
2019-05-13T20:12:15.751Z,2.37
2019-05-13T20:14:51.771Z,2.00
2019-05-13T20:17:36.332Z,2.10
2019-05-13T20:20:08.071Z,2.23
2019-05-13T20:22:45.511Z,2.10
2019-05-13T20:25:38.600Z,1.90
2019-05-13T20:28:35.844Z,2.13
2019-05-13T20:31:11.263Z,2.20
2019-05-13T20:33:46.247Z,2.23
2019-05-13T20:36:19.084Z,2.43
2019-05-13T20:38:52.458Z,2.00
2019-05-13T20:41:25.267Z,2.20
2019-05-13T20:44:09.709Z,2.30
2019-05-13T20:46:43.096Z,2.70
2019-05-13T20:49:21.921Z,2.20
2019-05-13T20:51:55.399Z,2.50
2019-05-13T20:54:31.429Z,2.43
2019-05-13T20:57:08.680Z,2.63
2019-05-13T20:59:41.626Z,2.70
2019-05-13T21:02:22.116Z,2.60
2019-05-13T21:05:01.313Z,2.30
2019-05-13T21:07:38.645Z,2.53
2019-05-13T21:10:31.387Z,2.40
2019-05-13T21:13:05.109Z,2.23
2019-05-13T21:18:45.918Z,2.20
2019-05-13T21:21:22.182Z,2.10
2019-05-13T21:24:01.533Z,2.23
2019-05-13T21:26:38.254Z,2.10
2019-05-13T21:29:21.654Z,1.90
2019-05-13T21:31:58.631Z,1.90
2019-05-13T21:34:32.263Z,2.00
2019-05-13T21:37:11.359Z,2.03
2019-05-13T21:39:44.439Z,1.90
2019-05-13T21:42:36.426Z,1.93
2019-05-13T21:45:23.426Z,1.80
2019-05-13T21:47:55.460Z,1.90
2019-05-13T21:50:37.120Z,2.00
2019-05-13T21:53:07.620Z,1.80
2019-05-13T21:55:41.735Z,1.60
2019-05-13T21:58:22.403Z,1.80
2019-05-13T22:01:04.465Z,1.80
2019-05-13T22:03:42.025Z,1.93
2019-05-13T22:06:13.793Z,1.70
2019-05-13T22:08:46.721Z,1.70
2019-05-13T22:11:18.968Z,1.70
2019-05-13T22:13:51.597Z,1.90
2019-05-13T22:16:25.409Z,1.80
2019-05-13T22:18:56.383Z,1.70
2019-05-13T22:21:27.702Z,1.63
2019-05-13T22:24:05.021Z,1.63
2019-05-13T22:26:38.466Z,1.57
2019-05-13T22:29:12.306Z,1.70
2019-05-13T22:31:47.555Z,1.63
2019-05-13T22:34:22.837Z,1.87
2019-05-13T22:37:02.392Z,1.70
2019-05-13T22:39:37.847Z,1.90
2019-05-13T22:42:14.378Z,1.87
2019-05-13T22:44:52.265Z,1.90
2019-05-13T22:47:23.909Z,1.60
2019-05-13T22:49:57.093Z,1.93
2019-05-13T22:52:33.775Z,1.80
2019-05-13T22:55:07.224Z,1.90
2019-05-13T22:57:38.665Z,1.50
2019-05-13T23:00:12.204Z,2.00
2019-05-13T23:02:45.700Z,1.93
2019-05-13T23:05:21.616Z,1.80
2019-05-13T23:07:54.884Z,2.00
2019-05-13T23:10:28.590Z,1.63
2019-05-13T23:13:02.918Z,1.70
2019-05-13T23:15:35.842Z,2.20
2019-05-13T23:18:11.590Z,1.70
2019-05-13T23:20:42.410Z,1.90
2019-05-13T23:23:16.382Z,1.53
2019-05-13T23:25:56.659Z,1.70
2019-05-13T23:28:49.253Z,1.90
2019-05-13T23:31:22.986Z,1.80
2019-05-13T23:33:58.504Z,1.90
2019-05-13T23:36:42.352Z,2.17
2019-05-13T23:39:42.230Z,1.97
2019-05-13T23:42:24.473Z,2.00
2019-05-13T23:45:01.135Z,2.10
2019-05-13T23:47:35.160Z,1.90
2019-05-13T23:50:07.336Z,2.20
2019-05-13T23:52:41.691Z,2.10
2019-05-13T23:55:14.131Z,1.90
2019-05-13T23:57:47.642Z,1.90
